createdAt,value
2023-01-19T00:00:52.669Z,84.18
2023-01-19T00:03:20.691Z,83.38
2023-01-19T00:05:48.639Z,84.12
2023-01-19T00:08:16.545Z,84.51
2023-01-19T00:10:47.408Z,84.28
2023-01-19T00:13:15.586Z,84.97
2023-01-19T00:15:43.515Z,84.92
2023-01-19T00:18:11.582Z,85.22
2023-01-19T00:20:40.325Z,85.44
2023-01-19T00:23:09.201Z,86.24
2023-01-19T00:25:43.606Z,86.57
2023-01-19T00:28:12.610Z,86.80
2023-01-19T00:30:40.704Z,86.48
2023-01-19T00:33:08.581Z,87.59
2023-01-19T00:35:36.815Z,87.81
2023-01-19T00:38:04.827Z,87.46
2023-01-19T00:40:32.679Z,88.12
2023-01-19T00:43:01.920Z,89.44
2023-01-19T00:45:29.979Z,89.96
2023-01-19T00:48:00.897Z,90.77
2023-01-19T00:50:29.415Z,90.67
2023-01-19T00:52:57.921Z,91.14
2023-01-19T00:55:25.860Z,90.78
2023-01-19T00:57:53.694Z,91.37
2023-01-19T01:00:22.176Z,91.21
2023-01-19T01:02:51.003Z,91.25
2023-01-19T01:05:19.323Z,91.24
2023-01-19T01:07:48.027Z,91.81
2023-01-19T01:10:20.800Z,92.32
2023-01-19T01:12:55.160Z,92.40
2023-01-19T01:15:36.507Z,92.50
2023-01-19T01:18:04.335Z,92.56
2023-01-19T01:20:34.791Z,92.97
2023-01-19T01:23:03.140Z,93.65
2023-01-19T01:25:32.232Z,93.94
2023-01-19T01:28:00.098Z,93.98
2023-01-19T01:30:27.872Z,94.17
2023-01-19T01:32:55.954Z,93.88
2023-01-19T01:35:24.245Z,93.88
2023-01-19T01:37:52.085Z,93.68
2023-01-19T01:40:20.671Z,93.55
2023-01-19T01:42:48.477Z,93.37
2023-01-19T01:45:35.373Z,93.47
2023-01-19T01:48:07.217Z,93.47
2023-01-19T01:50:35.618Z,93.19
2023-01-19T01:53:08.131Z,93.68
2023-01-19T01:55:46.684Z,93.50
2023-01-19T01:58:14.539Z,93.73
2023-01-19T02:01:01.135Z,93.59
2023-01-19T02:03:29.127Z,93.69
2023-01-19T02:05:58.639Z,93.35
2023-01-19T02:08:54.238Z,93.45
2023-01-19T02:11:41.690Z,93.46
2023-01-19T02:14:09.557Z,93.96
2023-01-19T02:16:37.890Z,94.35
2023-01-19T02:19:08.849Z,94.36
2023-01-19T02:21:44.563Z,94.44
2023-01-19T02:24:12.582Z,94.44
2023-01-19T02:26:42.073Z,94.43
2023-01-19T02:29:20.275Z,94.35
2023-01-19T02:31:48.189Z,94.50
2023-01-19T02:34:17.767Z,93.81
2023-01-19T02:36:57.434Z,93.54
2023-01-19T02:39:33.156Z,93.94
2023-01-19T02:42:03.928Z,94.21
2023-01-19T02:44:31.900Z,94.10
2023-01-19T02:46:59.642Z,93.99
2023-01-19T02:49:40.253Z,94.64
2023-01-19T02:52:12.320Z,94.18
2023-01-19T02:54:59.520Z,94.58
2023-01-19T02:58:02.417Z,94.89
2023-01-19T03:00:42.018Z,94.49
2023-01-19T03:03:49.107Z,94.76
2023-01-19T03:06:27.109Z,94.81
2023-01-19T03:09:02.398Z,94.73
2023-01-19T03:11:33.984Z,94.85
2023-01-19T03:14:15.985Z,94.89
2023-01-19T03:16:44.248Z,95.58
2023-01-19T03:19:22.711Z,96.35
2023-01-19T03:21:59.269Z,96.62
2023-01-19T03:24:29.441Z,96.67
2023-01-19T03:27:00.638Z,96.76
2023-01-19T03:29:30.366Z,97.01
2023-01-19T03:31:58.339Z,97.53
2023-01-19T03:34:26.146Z,97.63
2023-01-19T03:36:59.184Z,97.62
2023-01-19T03:39:27.823Z,98.26
2023-01-19T03:41:58.744Z,98.25
2023-01-19T03:44:27.402Z,98.46
2023-01-19T03:46:55.229Z,98.82
2023-01-19T03:49:23.036Z,99.21
2023-01-19T03:51:50.918Z,99.97
2023-01-19T03:54:18.757Z,99.27
2023-01-19T03:56:46.617Z,99.22
2023-01-19T03:59:19.111Z,99.22
2023-01-19T04:01:47.586Z,99.43
2023-01-19T04:04:16.751Z,99.53
2023-01-19T04:06:45.067Z,99.87
2023-01-19T04:09:19.280Z,99.65
2023-01-19T04:11:47.784Z,99.78
2023-01-19T04:14:15.582Z,99.97
2023-01-19T04:16:43.377Z,99.47
2023-01-19T04:19:11.240Z,99.29
2023-01-19T04:21:39.067Z,99.53
2023-01-19T04:24:07.261Z,99.48
2023-01-19T04:26:34.996Z,99.15
2023-01-19T04:29:07.300Z,98.66
2023-01-19T04:31:36.860Z,98.42
2023-01-19T04:34:09.746Z,98.86
2023-01-19T04:36:37.630Z,98.49
2023-01-19T04:39:06.222Z,98.76
2023-01-19T04:41:34.232Z,98.02
2023-01-19T04:44:02.068Z,99.02
2023-01-19T04:46:29.950Z,98.70
2023-01-19T04:48:57.813Z,98.41
2023-01-19T04:51:25.845Z,98.30
2023-01-19T04:53:53.774Z,98.72
2023-01-19T04:56:21.851Z,98.24
2023-01-19T04:58:54.470Z,97.70
2023-01-19T05:01:22.373Z,97.80
2023-01-19T05:03:50.232Z,97.34
2023-01-19T05:06:18.085Z,97.48
2023-01-19T05:08:50.893Z,97.27
2023-01-19T05:11:18.849Z,97.48
2023-01-19T05:13:46.669Z,97.63
2023-01-19T05:16:17.525Z,97.76
2023-01-19T05:18:45.420Z,98.05
2023-01-19T05:21:13.263Z,98.04
2023-01-19T05:23:41.071Z,98.25
2023-01-19T05:26:09.660Z,98.01
2023-01-19T05:28:39.142Z,97.70
2023-01-19T05:31:07.216Z,97.88
2023-01-19T05:33:35.289Z,98.29
2023-01-19T05:36:03.256Z,97.78
2023-01-19T05:38:35.272Z,97.96
2023-01-19T05:41:03.612Z,98.59
2023-01-19T05:43:31.426Z,98.24
2023-01-19T05:45:59.182Z,98.25
2023-01-19T05:48:27.124Z,98.13
2023-01-19T05:50:59.007Z,97.95
2023-01-19T05:53:26.934Z,97.67
2023-01-19T05:55:54.912Z,97.35
2023-01-19T05:58:22.691Z,97.42
2023-01-19T06:00:50.522Z,97.25
2023-01-19T06:03:18.824Z,97.34
2023-01-19T06:05:46.804Z,97.08
2023-01-19T06:08:14.661Z,97.20
2023-01-19T06:10:42.557Z,96.72
2023-01-19T06:13:12.386Z,96.63
2023-01-19T06:15:40.487Z,96.34
2023-01-19T06:18:08.280Z,95.59
2023-01-19T06:20:37.306Z,95.56
2023-01-19T06:23:05.346Z,94.96
2023-01-19T06:25:33.148Z,94.32
2023-01-19T06:28:01.076Z,94.40
2023-01-19T06:30:30.266Z,94.06
2023-01-19T06:33:03.194Z,94.80
2023-01-19T06:35:31.432Z,94.80
2023-01-19T06:37:59.486Z,93.95
2023-01-19T06:40:27.502Z,94.55
2023-01-19T06:42:55.379Z,94.02
2023-01-19T06:45:23.204Z,93.79
2023-01-19T06:47:51.012Z,93.84
2023-01-19T06:50:18.985Z,93.92
2023-01-19T06:52:46.902Z,93.27
2023-01-19T06:55:19.691Z,93.50
2023-01-19T06:57:47.661Z,92.46
2023-01-19T07:00:19.467Z,92.85
2023-01-19T07:02:49.266Z,93.09
2023-01-19T07:05:19.601Z,91.83
2023-01-19T07:07:57.232Z,100.00
2023-01-19T07:10:25.346Z,100.00
2023-01-19T07:12:53.539Z,100.00
2023-01-19T07:15:23.790Z,100.00
2023-01-19T07:17:51.660Z,88.60
2023-01-19T07:20:20.805Z,89.42
2023-01-19T07:22:48.596Z,87.82
2023-01-19T07:25:16.620Z,89.12
2023-01-19T07:27:46.135Z,88.96
2023-01-19T07:30:19.201Z,90.06
2023-01-19T07:32:47.114Z,88.53
2023-01-19T07:35:15.633Z,90.90
2023-01-19T07:37:48.638Z,91.43
2023-01-19T07:40:23.339Z,91.83
2023-01-19T07:42:52.290Z,91.17
2023-01-19T07:45:21.766Z,90.96
2023-01-19T07:47:50.098Z,91.19
2023-01-19T07:50:18.887Z,90.62
2023-01-19T07:52:46.828Z,91.37
2023-01-19T07:55:14.664Z,91.24
2023-01-19T07:57:42.647Z,90.99
2023-01-19T08:00:15.556Z,91.76
2023-01-19T08:02:43.412Z,92.00
2023-01-19T08:05:11.198Z,90.83
2023-01-19T08:07:39.020Z,91.19
2023-01-19T08:10:07.421Z,91.59
2023-01-19T08:12:35.943Z,91.73
2023-01-19T08:15:03.756Z,91.90
2023-01-19T08:17:31.568Z,90.17
2023-01-19T08:19:59.499Z,90.65
2023-01-19T08:22:27.290Z,88.52
2023-01-19T08:24:56.100Z,89.07
2023-01-19T08:27:23.916Z,87.92
2023-01-19T08:29:51.761Z,85.02
2023-01-19T08:32:20.077Z,82.75
2023-01-19T08:34:48.092Z,84.33
2023-01-19T08:37:16.045Z,83.45
2023-01-19T08:39:43.864Z,82.67
2023-01-19T08:42:11.628Z,83.44
2023-01-19T08:44:46.683Z,81.71
2023-01-19T08:47:21.184Z,82.68
2023-01-19T08:49:48.967Z,81.44
2023-01-19T08:52:16.752Z,80.24
2023-01-19T08:54:44.620Z,79.79
2023-01-19T08:57:12.355Z,80.62
2023-01-19T08:59:40.144Z,80.20
2023-01-19T09:02:08.105Z,80.78
2023-01-19T09:04:36.669Z,79.67
2023-01-19T09:09:32.277Z,79.49
2023-01-19T09:12:00.053Z,79.82
2023-01-19T09:14:27.970Z,79.08
2023-01-19T09:16:57.308Z,76.07
2023-01-19T09:19:26.481Z,76.54
2023-01-19T09:21:55.987Z,75.34
2023-01-19T09:24:23.866Z,75.22
2023-01-19T09:26:51.744Z,74.30
2023-01-19T09:29:19.945Z,74.55
2023-01-19T09:31:47.757Z,75.07
2023-01-19T09:34:15.583Z,74.47
2023-01-19T09:36:43.470Z,74.16
2023-01-19T09:39:12.206Z,72.30
2023-01-19T09:41:40.164Z,70.33
2023-01-19T09:44:08.353Z,68.69
2023-01-19T09:46:40.816Z,69.14
2023-01-19T09:49:36.003Z,70.51
2023-01-19T09:52:03.897Z,68.41
2023-01-19T09:54:42.228Z,70.53
2023-01-19T09:57:14.799Z,68.61
2023-01-19T09:59:44.865Z,69.20
2023-01-19T10:02:41.017Z,68.47
2023-01-19T10:05:25.158Z,65.69
2023-01-19T10:08:20.666Z,63.37
2023-01-19T10:10:58.764Z,65.98
2023-01-19T10:13:48.245Z,66.12
2023-01-19T10:16:54.484Z,65.49
2023-01-19T10:19:28.157Z,63.03
2023-01-19T10:21:57.004Z,66.13
2023-01-19T10:24:37.241Z,66.58
2023-01-19T10:27:05.177Z,64.62
2023-01-19T10:29:37.475Z,65.34
2023-01-19T10:32:09.569Z,63.25
2023-01-19T10:34:37.955Z,62.22
2023-01-19T10:37:13.801Z,62.89
2023-01-19T10:39:41.886Z,62.75
2023-01-19T10:42:11.615Z,63.85
2023-01-19T10:44:40.168Z,63.44
2023-01-19T10:47:07.986Z,62.31
2023-01-19T10:49:45.829Z,63.11
2023-01-19T10:52:33.068Z,63.47
2023-01-19T10:55:02.150Z,63.47
2023-01-19T10:57:40.644Z,61.70
2023-01-19T11:00:29.179Z,61.80
2023-01-19T11:02:57.267Z,63.88
2023-01-19T11:05:29.971Z,62.54
2023-01-19T11:07:57.915Z,62.46
2023-01-19T11:10:27.442Z,61.22
2023-01-19T11:13:00.313Z,62.18
2023-01-19T11:16:00.449Z,60.42
2023-01-19T11:18:35.414Z,59.14
2023-01-19T11:21:08.732Z,58.92
2023-01-19T11:23:43.611Z,56.28
2023-01-19T11:26:19.321Z,56.06
2023-01-19T11:28:53.214Z,57.52
2023-01-19T11:31:31.082Z,55.42
2023-01-19T11:34:25.817Z,55.23
2023-01-19T11:37:02.169Z,53.33
2023-01-19T11:39:31.256Z,54.82
2023-01-19T11:42:01.242Z,54.44
2023-01-19T11:44:32.156Z,57.04
2023-01-19T11:47:01.484Z,55.67
2023-01-19T11:49:40.522Z,56.25
2023-01-19T11:52:16.236Z,55.93
2023-01-19T11:54:51.459Z,56.00
2023-01-19T11:57:19.546Z,56.43
2023-01-19T11:59:47.418Z,58.34
2023-01-19T12:02:30.453Z,58.42
2023-01-19T12:05:00.856Z,58.58
2023-01-19T12:07:34.994Z,57.56
2023-01-19T12:10:21.605Z,57.30
2023-01-19T12:12:49.337Z,57.41
2023-01-19T12:15:37.642Z,57.27
2023-01-19T12:18:06.646Z,58.57
2023-01-19T12:20:45.724Z,59.11
2023-01-19T12:23:38.399Z,59.58
2023-01-19T12:26:25.182Z,59.17
2023-01-19T12:28:53.430Z,60.37
2023-01-19T12:31:24.591Z,60.26
2023-01-19T12:33:52.600Z,58.55
2023-01-19T12:36:36.635Z,53.66
2023-01-19T12:39:07.315Z,55.14
2023-01-19T12:41:35.463Z,54.42
2023-01-19T12:44:17.266Z,54.75
2023-01-19T12:46:55.877Z,53.91
2023-01-19T12:49:38.902Z,55.97
2023-01-19T12:52:29.239Z,56.91
2023-01-19T12:55:00.848Z,55.97
2023-01-19T12:57:36.547Z,58.50
2023-01-19T13:00:15.238Z,57.23
2023-01-19T13:02:47.568Z,55.59
2023-01-19T13:05:20.052Z,57.93
2023-01-19T13:08:16.556Z,57.08
2023-01-19T13:10:56.167Z,59.58
2023-01-19T13:13:23.932Z,58.65
2023-01-19T13:15:54.782Z,58.10
2023-01-19T13:18:29.895Z,57.87
2023-01-19T13:21:08.290Z,55.83
2023-01-19T13:23:54.096Z,58.92
2023-01-19T13:26:40.449Z,55.04
2023-01-19T13:29:09.629Z,56.09
2023-01-19T13:31:42.671Z,55.18
2023-01-19T13:34:24.556Z,56.15
2023-01-19T13:36:53.781Z,56.59
2023-01-19T13:39:30.346Z,57.88
2023-01-19T13:42:00.559Z,57.10
2023-01-19T13:44:30.698Z,57.10
2023-01-19T13:47:00.600Z,56.79
2023-01-19T13:49:38.307Z,58.55
2023-01-19T13:52:09.018Z,59.80
2023-01-19T13:54:36.890Z,57.84
2023-01-19T13:57:05.007Z,59.39
2023-01-19T13:59:33.061Z,59.68
2023-01-19T14:02:05.718Z,59.26
2023-01-19T14:04:35.079Z,58.80
2023-01-19T14:07:05.109Z,58.45
2023-01-19T14:09:33.085Z,58.18
2023-01-19T14:12:16.849Z,60.19
2023-01-19T14:14:49.429Z,58.75
2023-01-19T14:17:28.559Z,58.73
2023-01-19T14:19:57.886Z,59.85
2023-01-19T14:22:42.352Z,58.20
2023-01-19T14:25:32.893Z,59.46
2023-01-19T14:28:32.215Z,58.41
2023-01-19T14:31:01.943Z,57.83
2023-01-19T14:33:43.540Z,58.25
2023-01-19T14:36:12.969Z,58.36
2023-01-19T14:38:45.734Z,58.93
2023-01-19T14:41:16.536Z,59.03
2023-01-19T14:43:45.454Z,59.10
2023-01-19T14:46:20.272Z,59.09
2023-01-19T14:48:53.681Z,59.32
2023-01-19T14:51:23.705Z,58.87
2023-01-19T14:53:57.986Z,60.00
2023-01-19T14:56:36.632Z,60.47
2023-01-19T14:59:06.765Z,59.60
2023-01-19T15:01:34.578Z,60.45
2023-01-19T15:04:02.427Z,60.51
2023-01-19T15:06:30.349Z,59.26
2023-01-19T15:08:58.275Z,59.17
2023-01-19T15:11:35.611Z,58.36
2023-01-19T15:14:03.506Z,58.63
2023-01-19T15:16:32.565Z,58.83
2023-01-19T15:19:00.373Z,59.78
2023-01-19T15:21:28.166Z,58.00
2023-01-19T15:23:56.414Z,58.33
2023-01-19T15:26:25.282Z,58.16
2023-01-19T15:28:53.266Z,58.78
2023-01-19T15:31:22.855Z,58.65
2023-01-19T15:33:51.035Z,58.55
2023-01-19T15:36:20.347Z,57.95
2023-01-19T15:38:48.367Z,57.48
2023-01-19T15:41:27.536Z,56.49
2023-01-19T15:43:55.365Z,57.31
2023-01-19T15:46:24.109Z,57.73
2023-01-19T15:48:52.100Z,59.09
2023-01-19T15:51:23.289Z,58.78
2023-01-19T15:53:51.512Z,59.37
2023-01-19T15:56:25.745Z,59.66
2023-01-19T15:58:54.377Z,61.37
2023-01-19T16:01:32.664Z,61.02
2023-01-19T16:04:02.324Z,61.52
2023-01-19T16:06:30.921Z,61.98
2023-01-19T16:09:00.863Z,62.80
2023-01-19T16:11:30.392Z,61.93
2023-01-19T16:13:58.208Z,61.93
2023-01-19T16:16:26.575Z,63.24
2023-01-19T16:18:54.487Z,62.31
2023-01-19T16:21:22.378Z,62.58
2023-01-19T16:23:50.265Z,62.55
2023-01-19T16:26:35.456Z,62.28
2023-01-19T16:29:16.345Z,62.78
2023-01-19T16:31:44.409Z,62.18
2023-01-19T16:34:12.502Z,63.07
2023-01-19T16:36:41.494Z,62.42
2023-01-19T16:39:12.231Z,62.47
2023-01-19T16:41:40.187Z,62.88
2023-01-19T16:44:08.159Z,63.14
2023-01-19T16:46:37.667Z,63.75
2023-01-19T16:49:07.899Z,62.72
2023-01-19T16:51:35.858Z,63.34
2023-01-19T16:54:03.626Z,64.48
2023-01-19T16:56:31.565Z,64.37
2023-01-19T16:59:00.006Z,65.96
2023-01-19T17:01:28.841Z,64.46
2023-01-19T17:03:56.944Z,64.43
2023-01-19T17:06:24.990Z,64.61
2023-01-19T17:08:53.205Z,64.89
2023-01-19T17:11:22.981Z,65.10
2023-01-19T17:13:55.915Z,65.44
2023-01-19T17:16:24.748Z,64.83
2023-01-19T17:18:53.585Z,66.43
2023-01-19T17:21:21.505Z,65.08
2023-01-19T17:23:50.433Z,64.70
2023-01-19T17:26:23.116Z,64.88
2023-01-19T17:28:50.912Z,64.40
2023-01-19T17:31:22.751Z,64.97
2023-01-19T17:33:51.391Z,65.50
2023-01-19T17:36:24.246Z,66.10
2023-01-19T17:38:56.176Z,66.53
2023-01-19T17:41:28.619Z,67.61
2023-01-19T17:43:56.891Z,68.30
2023-01-19T17:46:38.910Z,68.38
2023-01-19T17:49:07.589Z,68.47
2023-01-19T17:51:35.672Z,69.60
2023-01-19T17:54:03.749Z,68.48
2023-01-19T17:56:34.276Z,69.08
2023-01-19T17:59:02.072Z,68.40
2023-01-19T18:01:32.650Z,67.66
2023-01-19T18:04:01.881Z,67.88
2023-01-19T18:06:35.196Z,69.50
2023-01-19T18:09:03.141Z,69.29
2023-01-19T18:11:31.005Z,68.59
2023-01-19T18:13:59.564Z,68.87
2023-01-19T18:16:28.949Z,69.72
2023-01-19T18:18:57.212Z,69.74
2023-01-19T18:21:25.971Z,70.09
2023-01-19T18:23:53.968Z,69.98
2023-01-19T18:26:23.189Z,70.36
2023-01-19T18:28:51.070Z,70.42
2023-01-19T18:31:19.838Z,71.20
2023-01-19T18:33:48.937Z,71.04
2023-01-19T18:36:17.170Z,71.93
2023-01-19T18:38:45.283Z,71.30
2023-01-19T18:41:15.572Z,71.85
2023-01-19T18:43:43.638Z,72.15
2023-01-19T18:46:11.780Z,72.26
2023-01-19T18:48:39.927Z,72.89
2023-01-19T18:51:09.137Z,71.52
2023-01-19T18:53:50.227Z,73.20
2023-01-19T18:56:21.105Z,71.43
2023-01-19T18:58:49.070Z,73.94
2023-01-19T19:01:21.802Z,72.77
2023-01-19T19:03:52.670Z,72.61
2023-01-19T19:06:21.898Z,72.61
2023-01-19T19:08:53.097Z,71.92
2023-01-19T19:11:21.517Z,72.94
2023-01-19T19:13:59.734Z,72.81
2023-01-19T19:16:27.862Z,73.31
2023-01-19T19:18:56.072Z,72.42
2023-01-19T19:21:26.358Z,73.24
2023-01-19T19:23:55.615Z,73.06
2023-01-19T19:26:23.687Z,72.80
2023-01-19T19:28:51.603Z,74.15
2023-01-19T19:31:21.654Z,73.98
2023-01-19T19:33:52.353Z,74.15
2023-01-19T19:36:21.140Z,75.08
2023-01-19T19:38:50.109Z,75.14
2023-01-19T19:41:22.957Z,74.92
2023-01-19T19:43:50.960Z,75.56
2023-01-19T19:46:21.171Z,74.80
2023-01-19T19:49:02.956Z,75.09
2023-01-19T19:51:35.723Z,77.25
2023-01-19T19:54:08.337Z,75.45
2023-01-19T19:56:36.201Z,76.55
2023-01-19T19:59:04.138Z,76.49
2023-01-19T20:01:34.094Z,77.11
2023-01-19T20:04:07.181Z,75.08
2023-01-19T20:06:39.843Z,75.57
2023-01-19T20:09:10.341Z,75.99
2023-01-19T20:11:43.020Z,75.56
2023-01-19T20:14:17.464Z,75.23
2023-01-19T20:16:50.281Z,74.96
2023-01-19T20:19:19.476Z,75.51
2023-01-19T20:21:47.392Z,76.30
2023-01-19T20:24:16.643Z,76.43
2023-01-19T20:26:50.910Z,77.87
2023-01-19T20:29:23.590Z,77.17
2023-01-19T20:32:02.953Z,77.33
2023-01-19T20:34:34.397Z,77.95
2023-01-19T20:37:02.918Z,78.47
2023-01-19T20:39:35.820Z,79.20
2023-01-19T20:42:03.815Z,78.56
2023-01-19T20:44:31.781Z,78.57
2023-01-19T20:46:59.713Z,79.74
2023-01-19T20:49:27.640Z,78.81
2023-01-19T20:51:55.822Z,78.63
2023-01-19T20:54:27.391Z,79.75
2023-01-19T20:56:55.227Z,79.13
2023-01-19T20:59:23.198Z,79.33
2023-01-19T21:01:51.206Z,80.21
2023-01-19T21:04:19.091Z,80.39
2023-01-19T21:06:46.889Z,77.35
2023-01-19T21:09:14.785Z,78.33
2023-01-19T21:11:47.406Z,76.89
2023-01-19T21:14:15.369Z,77.65
2023-01-19T21:16:43.750Z,76.83
2023-01-19T21:19:11.679Z,76.75
2023-01-19T21:21:39.495Z,77.18
2023-01-19T21:24:07.629Z,78.79
2023-01-19T21:26:35.500Z,78.65
2023-01-19T21:29:03.911Z,78.46
2023-01-19T21:31:31.803Z,78.53
2023-01-19T21:33:59.774Z,79.21
2023-01-19T21:36:27.710Z,79.28
2023-01-19T21:39:01.297Z,79.75
2023-01-19T21:41:29.592Z,78.80
2023-01-19T21:43:57.485Z,79.11
2023-01-19T21:46:33.343Z,78.71
2023-01-19T21:49:02.716Z,78.17
2023-01-19T21:51:31.350Z,78.95
2023-01-19T21:54:01.182Z,79.25
2023-01-19T21:56:29.411Z,78.95
2023-01-19T21:58:57.862Z,78.94
2023-01-19T22:01:25.891Z,79.63
2023-01-19T22:03:57.413Z,78.85
2023-01-19T22:06:25.882Z,79.07
2023-01-19T22:08:53.947Z,79.63
2023-01-19T22:11:26.824Z,79.16
2023-01-19T22:13:55.317Z,79.47
2023-01-19T22:16:23.677Z,80.01
2023-01-19T22:18:54.212Z,80.48
2023-01-19T22:21:23.519Z,80.92
2023-01-19T22:23:56.084Z,81.17
2023-01-19T22:26:24.062Z,81.76
2023-01-19T22:29:01.562Z,82.55
2023-01-19T22:31:34.073Z,82.32
2023-01-19T22:34:02.027Z,82.32
2023-01-19T22:36:31.294Z,82.56
2023-01-19T22:39:04.390Z,82.79
2023-01-19T22:41:35.964Z,82.81
2023-01-19T22:44:10.886Z,82.08
2023-01-19T22:46:38.771Z,81.39
2023-01-19T22:49:08.635Z,81.03
2023-01-19T22:51:36.821Z,80.56
2023-01-19T22:54:04.720Z,80.27
2023-01-19T22:56:33.648Z,81.21
2023-01-19T22:59:01.848Z,81.84
2023-01-19T23:01:34.640Z,81.64
2023-01-19T23:04:03.336Z,82.63
2023-01-19T23:06:35.828Z,81.78
2023-01-19T23:09:05.729Z,82.38
2023-01-19T23:11:38.634Z,81.64
2023-01-19T23:14:08.530Z,81.34
2023-01-19T23:16:36.437Z,81.63
2023-01-19T23:19:04.415Z,81.45
2023-01-19T23:21:32.669Z,81.95
2023-01-19T23:24:01.771Z,82.19
2023-01-19T23:26:30.064Z,82.46
2023-01-19T23:28:59.754Z,82.77
2023-01-19T23:31:29.269Z,83.41
2023-01-19T23:33:58.440Z,83.24
2023-01-19T23:36:27.382Z,83.25
2023-01-19T23:39:02.574Z,83.36
2023-01-19T23:41:35.674Z,83.51
2023-01-19T23:44:03.530Z,84.23
2023-01-19T23:46:31.403Z,84.57
2023-01-19T23:48:59.268Z,84.51
2023-01-19T23:51:28.793Z,84.46
2023-01-19T23:53:57.594Z,85.31
2023-01-19T23:56:31.300Z,85.35
2023-01-19T23:59:00.678Z,85.42
